createdAt,value
2022-09-13T00:00:46.703Z,15.30
2022-09-13T00:03:15.178Z,15.20
2022-09-13T00:05:43.071Z,15.20
2022-09-13T00:08:11.554Z,15.20
2022-09-13T00:10:42.412Z,15.40
2022-09-13T00:13:12.679Z,15.50
2022-09-13T00:15:44.886Z,15.20
2022-09-13T00:18:12.763Z,15.40
2022-09-13T00:20:40.703Z,15.40
2022-09-13T00:23:09.021Z,15.80
2022-09-13T00:25:37.006Z,15.50
2022-09-13T00:28:06.690Z,16.30
2022-09-13T00:30:34.669Z,15.40
2022-09-13T00:33:04.697Z,16.00
2022-09-13T00:35:35.626Z,16.00
2022-09-13T00:38:03.480Z,15.30
2022-09-13T00:40:31.332Z,15.70
2022-09-13T00:42:59.343Z,15.70
2022-09-13T00:45:28.720Z,15.70
2022-09-13T00:48:00.148Z,15.70
2022-09-13T00:50:32.797Z,15.80
2022-09-13T00:53:06.714Z,15.80
2022-09-13T00:55:40.775Z,16.00
2022-09-13T00:58:14.171Z,15.90
2022-09-13T01:00:45.220Z,15.90
2022-09-13T01:03:16.797Z,15.90
2022-09-13T01:05:49.758Z,16.40
2022-09-13T01:08:22.947Z,15.90
2022-09-13T01:10:52.153Z,16.00
2022-09-13T01:13:22.481Z,16.10
2022-09-13T01:15:52.020Z,15.90
2022-09-13T01:18:20.344Z,16.00
2022-09-13T01:21:17.047Z,16.20
2022-09-13T01:24:06.079Z,16.00
2022-09-13T01:27:04.075Z,16.10
2022-09-13T01:30:13.129Z,16.10
2022-09-13T01:32:56.193Z,16.20
2022-09-13T01:35:35.007Z,16.30
2022-09-13T01:38:12.336Z,16.30
2022-09-13T01:40:54.415Z,16.70
2022-09-13T01:43:33.258Z,16.30
2022-09-13T01:46:07.155Z,16.30
2022-09-13T01:48:47.218Z,16.40
2022-09-13T01:51:22.283Z,16.40
2022-09-13T01:53:59.495Z,16.40
2022-09-13T01:56:33.823Z,16.40
2022-09-13T01:59:06.534Z,16.60
2022-09-13T02:01:40.267Z,16.90
2022-09-13T02:04:13.207Z,16.90
2022-09-13T02:06:45.861Z,16.50
2022-09-13T02:09:21.575Z,16.60
2022-09-13T02:11:52.122Z,17.00
2022-09-13T02:14:25.911Z,16.60
2022-09-13T02:16:59.954Z,16.60
2022-09-13T02:19:33.915Z,16.70
2022-09-13T02:22:03.628Z,16.50
2022-09-13T02:24:35.034Z,16.70
2022-09-13T02:27:06.668Z,16.70
2022-09-13T02:29:38.113Z,16.40
2022-09-13T02:32:13.018Z,16.30
2022-09-13T02:34:44.216Z,16.30
2022-09-13T02:37:13.358Z,16.20
2022-09-13T02:39:47.811Z,16.40
2022-09-13T02:42:18.643Z,16.20
2022-09-13T02:44:49.839Z,16.30
2022-09-13T02:47:32.405Z,16.00
2022-09-13T02:50:18.619Z,16.10
2022-09-13T02:52:52.738Z,16.10
2022-09-13T02:55:25.795Z,15.80
2022-09-13T02:58:01.083Z,16.50
2022-09-13T03:00:29.985Z,16.30
2022-09-13T03:03:03.610Z,15.90
2022-09-13T03:05:31.451Z,15.90
2022-09-13T03:08:00.166Z,16.20
2022-09-13T03:10:31.834Z,16.00
2022-09-13T03:13:20.931Z,15.90
2022-09-13T03:16:00.419Z,15.80
2022-09-13T03:18:43.999Z,15.60
2022-09-13T03:21:26.668Z,15.80
2022-09-13T03:24:02.238Z,16.10
2022-09-13T03:26:59.859Z,16.20
2022-09-13T03:29:33.521Z,15.80
2022-09-13T03:32:09.625Z,15.80
2022-09-13T03:34:46.515Z,15.80
2022-09-13T03:37:21.099Z,15.70
2022-09-13T03:39:53.740Z,15.60
2022-09-13T03:42:27.116Z,15.80
2022-09-13T03:44:58.803Z,16.00
2022-09-13T03:47:29.459Z,15.80
2022-09-13T03:49:59.454Z,15.70
2022-09-13T03:52:28.062Z,15.80
2022-09-13T03:54:55.927Z,15.80
2022-09-13T03:57:24.070Z,15.90
2022-09-13T03:59:53.775Z,15.70
2022-09-13T04:02:23.276Z,16.10
2022-09-13T04:04:51.603Z,15.70
2022-09-13T04:07:22.872Z,15.70
2022-09-13T04:09:50.991Z,15.70
2022-09-13T04:12:19.359Z,16.10
2022-09-13T04:14:47.454Z,16.10
2022-09-13T04:17:15.823Z,16.20
2022-09-13T04:19:44.666Z,15.60
2022-09-13T04:22:12.553Z,15.80
2022-09-13T04:24:43.225Z,15.60
2022-09-13T04:27:12.262Z,15.60
2022-09-13T04:29:40.135Z,16.10
2022-09-13T04:32:09.192Z,15.50
2022-09-13T04:34:37.057Z,15.80
2022-09-13T04:37:04.963Z,15.70
2022-09-13T04:39:32.818Z,15.80
2022-09-13T04:42:02.387Z,15.80
2022-09-13T04:44:30.309Z,16.40
2022-09-13T04:46:58.143Z,15.90
2022-09-13T04:49:26.064Z,15.80
2022-09-13T04:51:53.926Z,15.90
2022-09-13T04:54:22.056Z,16.50
2022-09-13T04:56:49.927Z,16.00
2022-09-13T04:59:19.300Z,16.40
2022-09-13T05:01:47.240Z,16.00
2022-09-13T05:04:15.293Z,16.20
2022-09-13T05:06:43.163Z,15.90
2022-09-13T05:09:14.471Z,16.00
2022-09-13T05:11:43.137Z,16.10
2022-09-13T05:14:12.376Z,16.10
2022-09-13T05:16:41.614Z,16.10
2022-09-13T05:19:09.991Z,16.10
2022-09-13T05:21:37.856Z,16.40
2022-09-13T05:24:05.817Z,16.10
2022-09-13T05:26:33.733Z,16.10
2022-09-13T05:29:01.842Z,16.30
2022-09-13T05:31:31.811Z,16.20
2022-09-13T05:34:03.233Z,16.20
2022-09-13T05:36:31.126Z,16.20
2022-09-13T05:39:19.191Z,16.00
2022-09-13T05:41:47.176Z,16.30
2022-09-13T05:44:15.050Z,16.70
2022-09-13T05:46:43.926Z,16.80
2022-09-13T05:49:14.657Z,16.10
2022-09-13T05:51:42.623Z,16.30
2022-09-13T05:54:13.022Z,16.40
2022-09-13T05:56:41.315Z,17.10
2022-09-13T05:59:12.506Z,16.40
2022-09-13T06:01:40.493Z,16.50
2022-09-13T06:04:08.486Z,16.20
2022-09-13T06:06:37.727Z,16.50
2022-09-13T06:09:06.561Z,16.60
2022-09-13T06:11:34.451Z,16.60
2022-09-13T06:14:02.507Z,17.00
2022-09-13T06:16:30.440Z,16.80
2022-09-13T06:18:59.474Z,16.90
2022-09-13T06:21:29.313Z,17.20
2022-09-13T06:23:59.028Z,17.00
2022-09-13T06:26:28.162Z,16.90
2022-09-13T06:28:57.774Z,17.00
2022-09-13T06:31:27.756Z,17.20
2022-09-13T06:34:02.294Z,17.20
2022-09-13T06:36:31.097Z,17.40
2022-09-13T06:39:01.700Z,17.30
2022-09-13T06:41:29.698Z,17.30
2022-09-13T06:43:59.482Z,17.30
2022-09-13T06:46:29.330Z,17.30
2022-09-13T06:49:00.788Z,17.30
2022-09-13T06:51:29.619Z,17.40
2022-09-13T06:53:58.253Z,17.50
2022-09-13T06:56:30.270Z,17.40
2022-09-13T06:58:59.698Z,17.20
2022-09-13T07:01:29.827Z,17.40
2022-09-13T07:04:01.406Z,17.30
2022-09-13T07:06:31.198Z,17.30
2022-09-13T07:09:00.659Z,17.30
2022-09-13T07:11:32.333Z,17.30
2022-09-13T07:14:00.953Z,17.40
2022-09-13T07:16:30.735Z,17.30
2022-09-13T07:19:00.228Z,17.30
2022-09-13T07:21:29.465Z,17.40
2022-09-13T07:23:57.771Z,17.40
2022-09-13T07:26:27.361Z,17.40
2022-09-13T07:28:58.267Z,17.40
2022-09-13T07:31:28.720Z,17.50
2022-09-13T07:33:58.512Z,17.50
2022-09-13T07:36:27.810Z,17.60
2022-09-13T07:38:55.950Z,17.60
2022-09-13T07:41:25.814Z,17.60
2022-09-13T07:43:54.568Z,17.70
2022-09-13T07:46:25.682Z,17.70
2022-09-13T07:48:55.058Z,17.80
2022-09-13T07:51:24.877Z,17.90
2022-09-13T07:53:57.497Z,17.90
2022-09-13T07:56:28.084Z,18.00
2022-09-13T07:58:56.527Z,18.10
2022-09-13T08:01:27.930Z,18.10
2022-09-13T08:03:57.495Z,18.20
2022-09-13T08:06:26.975Z,18.30
2022-09-13T08:08:55.117Z,18.30
2022-09-13T08:11:25.555Z,18.40
2022-09-13T08:13:53.807Z,18.40
2022-09-13T08:16:23.828Z,18.40
2022-09-13T08:18:54.713Z,18.50
2022-09-13T08:21:23.475Z,18.50
2022-09-13T08:23:55.050Z,18.50
2022-09-13T08:26:22.927Z,18.60
2022-09-13T08:28:51.727Z,18.60
2022-09-13T08:31:20.537Z,18.60
2022-09-13T08:33:49.399Z,18.60
2022-09-13T08:36:19.825Z,18.60
2022-09-13T08:38:49.175Z,18.80
2022-09-13T08:41:45.019Z,18.90
2022-09-13T08:44:23.227Z,19.10
2022-09-13T08:46:51.849Z,19.30
2022-09-13T08:49:24.815Z,19.50
2022-09-13T08:51:57.343Z,19.50
2022-09-13T08:54:25.242Z,19.60
2022-09-13T08:56:59.400Z,19.80
2022-09-13T08:59:51.799Z,20.00
2022-09-13T09:02:30.289Z,20.10
2022-09-13T09:05:05.383Z,20.20
2022-09-13T09:07:38.342Z,20.30
2022-09-13T09:10:08.749Z,20.30
2022-09-13T09:12:40.380Z,20.30
2022-09-13T09:15:16.046Z,20.40
2022-09-13T09:17:51.131Z,20.40
2022-09-13T09:20:31.952Z,20.40
2022-09-13T09:23:04.899Z,20.50
2022-09-13T09:25:33.545Z,20.50
2022-09-13T09:28:02.343Z,20.50
2022-09-13T09:30:40.743Z,20.60
2022-09-13T09:33:40.101Z,20.60
2022-09-13T09:36:15.686Z,20.80
2022-09-13T09:38:45.505Z,20.80
2022-09-13T09:41:22.742Z,20.80
2022-09-13T09:43:56.241Z,20.90
2022-09-13T09:46:29.094Z,20.90
2022-09-13T09:49:03.582Z,20.90
2022-09-13T09:51:33.120Z,20.90
2022-09-13T09:54:06.386Z,21.00
2022-09-13T09:56:36.823Z,21.00
2022-09-13T09:59:04.754Z,21.00
2022-09-13T10:01:35.110Z,21.00
2022-09-13T10:04:08.509Z,21.00
2022-09-13T10:06:38.382Z,21.00
2022-09-13T10:09:15.894Z,21.10
2022-09-13T10:11:49.992Z,21.10
2022-09-13T10:14:36.891Z,21.00
2022-09-13T10:17:07.636Z,20.90
2022-09-13T10:19:36.332Z,20.80
2022-09-13T10:22:07.043Z,20.60
2022-09-13T10:24:36.300Z,20.40
2022-09-13T10:27:05.370Z,20.40
2022-09-13T10:29:33.995Z,20.50
2022-09-13T10:32:12.870Z,20.60
2022-09-13T10:34:45.916Z,20.70
2022-09-13T10:37:17.694Z,20.70
2022-09-13T10:39:58.061Z,20.70
2022-09-13T10:42:28.836Z,20.70
2022-09-13T10:44:59.182Z,20.50
2022-09-13T10:47:33.499Z,20.40
2022-09-13T10:50:18.750Z,20.30
2022-09-13T10:52:47.562Z,20.20
2022-09-13T10:55:34.696Z,20.20
2022-09-13T10:58:19.750Z,20.30
2022-09-13T11:01:06.595Z,20.30
2022-09-13T11:03:48.180Z,20.40
2022-09-13T11:06:21.378Z,20.50
2022-09-13T11:09:13.664Z,20.60
2022-09-13T11:11:53.626Z,20.90
2022-09-13T11:14:38.064Z,20.90
2022-09-13T11:17:15.004Z,20.90
2022-09-13T11:20:03.924Z,20.90
2022-09-13T11:22:54.270Z,20.90
2022-09-13T11:25:51.336Z,20.90
2022-09-13T11:28:29.759Z,21.00
2022-09-13T11:31:21.398Z,21.00
2022-09-13T11:33:59.038Z,21.00
2022-09-13T11:36:45.363Z,21.10
2022-09-13T11:39:20.590Z,21.20
2022-09-13T11:41:58.626Z,21.30
2022-09-13T11:45:02.998Z,21.40
2022-09-13T11:47:41.263Z,21.40
2022-09-13T11:50:26.059Z,21.10
2022-09-13T11:53:07.599Z,20.60
2022-09-13T11:55:41.675Z,20.40
2022-09-13T11:58:15.892Z,20.30
2022-09-13T12:00:48.098Z,20.00
2022-09-13T12:03:22.097Z,19.80
2022-09-13T12:05:53.619Z,19.70
2022-09-13T12:08:25.582Z,19.60
2022-09-13T12:10:56.410Z,19.60
2022-09-13T12:13:27.119Z,19.50
2022-09-13T12:16:00.283Z,19.60
2022-09-13T12:18:31.955Z,19.60
2022-09-13T12:21:06.750Z,19.60
2022-09-13T12:23:39.727Z,19.80
2022-09-13T12:26:14.947Z,20.10
2022-09-13T12:28:47.790Z,20.30
2022-09-13T12:31:21.377Z,20.40
2022-09-13T12:33:50.446Z,20.60
2022-09-13T12:36:36.638Z,20.90
2022-09-13T12:39:38.312Z,21.10
2022-09-13T12:42:32.816Z,21.30
2022-09-13T12:45:22.821Z,21.50
2022-09-13T12:48:15.205Z,21.70
2022-09-13T12:51:03.500Z,22.10
2022-09-13T12:54:07.468Z,22.30
2022-09-13T12:57:04.152Z,22.40
2022-09-13T12:59:52.999Z,22.30
2022-09-13T13:02:29.442Z,22.20
2022-09-13T13:05:02.104Z,22.30
2022-09-13T13:07:33.599Z,22.30
2022-09-13T13:10:03.110Z,22.30
2022-09-13T13:12:34.570Z,22.30
2022-09-13T13:15:05.114Z,22.20
2022-09-13T13:17:38.493Z,22.20
2022-09-13T13:20:43.011Z,22.20
2022-09-13T13:23:24.351Z,22.30
2022-09-13T13:26:07.696Z,22.40
2022-09-13T13:29:13.992Z,22.50
2022-09-13T13:31:43.797Z,22.70
2022-09-13T13:34:41.054Z,22.80
2022-09-13T13:40:26.270Z,23.00
2022-09-13T13:43:30.380Z,23.30
2022-09-13T13:46:00.258Z,23.50
2022-09-13T13:48:39.109Z,23.60
2022-09-13T13:51:18.854Z,23.70
2022-09-13T13:53:54.382Z,23.70
2022-09-13T13:56:36.000Z,23.70
2022-09-13T13:59:14.495Z,23.70
2022-09-13T14:01:47.615Z,23.70
2022-09-13T14:05:01.089Z,23.60
2022-09-13T14:07:51.574Z,23.60
2022-09-13T14:10:25.087Z,23.60
2022-09-13T14:13:11.756Z,23.70
2022-09-13T14:15:52.719Z,23.60
2022-09-13T14:18:45.371Z,23.50
2022-09-13T14:21:22.663Z,23.40
2022-09-13T14:23:50.891Z,23.30
2022-09-13T14:26:18.842Z,23.30
2022-09-13T14:28:48.152Z,23.20
2022-09-13T14:31:21.146Z,23.40
2022-09-13T14:33:49.553Z,23.40
2022-09-13T14:36:20.599Z,23.40
2022-09-13T14:38:55.046Z,23.50
2022-09-13T14:41:33.724Z,23.50
2022-09-13T14:44:28.145Z,23.50
2022-09-13T14:47:03.378Z,23.60
2022-09-13T14:49:34.603Z,23.50
2022-09-13T14:52:06.267Z,23.40
2022-09-13T14:54:40.116Z,23.50
2022-09-13T14:57:11.561Z,23.40
2022-09-13T14:59:48.159Z,23.30
2022-09-13T15:02:21.632Z,23.10
2022-09-13T15:04:53.900Z,22.90
2022-09-13T15:07:24.806Z,22.70
2022-09-13T15:09:58.554Z,22.60
2022-09-13T15:12:29.051Z,22.50
2022-09-13T15:15:21.769Z,22.40
2022-09-13T15:17:54.026Z,22.30
2022-09-13T15:20:23.063Z,22.30
2022-09-13T15:22:53.611Z,22.30
2022-09-13T15:25:25.840Z,22.30
2022-09-13T15:27:55.103Z,22.30
2022-09-13T15:30:27.899Z,22.20
2022-09-13T15:33:07.347Z,22.20
2022-09-13T15:35:39.170Z,22.20
2022-09-13T15:38:19.531Z,22.10
2022-09-13T15:40:48.642Z,22.00
2022-09-13T15:43:16.510Z,22.00
2022-09-13T15:45:46.289Z,21.90
2022-09-13T15:48:23.828Z,21.80
2022-09-13T15:51:07.016Z,21.80
2022-09-13T15:53:35.458Z,21.80
2022-09-13T15:56:04.243Z,21.90
2022-09-13T15:58:32.769Z,21.90
2022-09-13T16:01:02.369Z,21.90
2022-09-13T16:03:30.531Z,22.00
2022-09-13T16:05:59.116Z,22.00
2022-09-13T16:08:27.005Z,22.00
2022-09-13T16:10:54.925Z,21.90
2022-09-13T16:13:23.355Z,21.90
2022-09-13T16:15:55.832Z,21.80
2022-09-13T16:18:27.279Z,21.70
2022-09-13T16:20:55.521Z,21.70
2022-09-13T16:23:23.436Z,21.60
2022-09-13T16:25:55.623Z,21.60
2022-09-13T16:28:23.490Z,21.50
2022-09-13T16:30:51.646Z,21.40
2022-09-13T16:33:20.398Z,21.30
2022-09-13T16:35:49.854Z,21.20
2022-09-13T16:38:18.129Z,21.10
2022-09-13T16:40:46.188Z,21.00
2022-09-13T16:43:14.063Z,21.00
2022-09-13T16:45:44.787Z,20.90
2022-09-13T16:48:13.009Z,20.80
2022-09-13T16:50:41.548Z,20.70
2022-09-13T16:53:10.985Z,20.60
2022-09-13T16:55:38.899Z,20.60
2022-09-13T16:58:06.822Z,20.50
2022-09-13T17:00:34.947Z,20.40
2022-09-13T17:03:02.900Z,20.40
2022-09-13T17:05:30.964Z,20.30
2022-09-13T17:07:58.900Z,20.20
2022-09-13T17:10:28.783Z,20.20
2022-09-13T17:12:56.677Z,20.10
2022-09-13T17:15:24.544Z,19.90
2022-09-13T17:17:52.472Z,19.90
2022-09-13T17:20:20.378Z,19.90
2022-09-13T17:22:48.264Z,19.80
2022-09-13T17:25:16.331Z,19.80
2022-09-13T17:27:45.582Z,19.70
2022-09-13T17:30:14.695Z,19.90
2022-09-13T17:32:42.537Z,19.50
2022-09-13T17:35:11.979Z,19.40
2022-09-13T17:37:39.848Z,19.30
2022-09-13T17:40:08.645Z,19.20
2022-09-13T17:42:36.612Z,19.10
2022-09-13T17:45:06.691Z,18.90
2022-09-13T17:47:34.998Z,19.00
2022-09-13T17:50:03.103Z,18.90
2022-09-13T17:52:34.789Z,18.80
2022-09-13T17:55:03.163Z,18.80
2022-09-13T17:57:31.289Z,18.70
2022-09-13T17:59:59.132Z,18.60
2022-09-13T18:02:29.519Z,18.60
2022-09-13T18:04:57.403Z,18.50
2022-09-13T18:07:25.340Z,18.40
2022-09-13T18:09:53.379Z,18.30
2022-09-13T18:12:21.475Z,18.30
2022-09-13T18:14:49.409Z,18.20
2022-09-13T18:17:17.286Z,18.10
2022-09-13T18:19:47.232Z,18.10
2022-09-13T18:22:15.346Z,18.00
2022-09-13T18:24:43.257Z,18.00
2022-09-13T18:27:11.135Z,17.90
2022-09-13T18:29:38.996Z,17.80
2022-09-13T18:32:07.337Z,18.00
2022-09-13T18:34:35.256Z,17.70
2022-09-13T18:37:04.490Z,17.60
2022-09-13T18:39:32.375Z,17.60
2022-09-13T18:42:01.029Z,17.60
2022-09-13T18:44:30.451Z,18.20
2022-09-13T18:47:00.516Z,17.70
2022-09-13T18:49:28.407Z,17.50
2022-09-13T18:51:56.241Z,17.50
2022-09-13T18:54:25.491Z,17.50
2022-09-13T18:56:55.823Z,17.50
2022-09-13T18:59:23.683Z,17.30
2022-09-13T19:01:51.620Z,17.20
2022-09-13T19:04:21.691Z,17.10
2022-09-13T19:07:35.974Z,17.10
2022-09-13T19:10:05.783Z,17.00
2022-09-13T19:12:33.624Z,16.90
2022-09-13T19:15:01.453Z,16.90
2022-09-13T19:17:29.266Z,17.40
2022-09-13T19:19:57.126Z,17.30
2022-09-13T19:22:25.111Z,16.60
2022-09-13T19:24:54.954Z,16.80
2022-09-13T19:27:24.317Z,17.00
2022-09-13T19:29:52.667Z,16.40
2022-09-13T19:32:20.614Z,16.30
2022-09-13T19:34:48.490Z,16.90
2022-09-13T19:37:16.475Z,16.90
2022-09-13T19:39:45.532Z,17.00
2022-09-13T19:42:13.794Z,16.50
2022-09-13T19:44:43.090Z,16.70
2022-09-13T19:49:58.956Z,16.20
2022-09-13T19:52:27.082Z,16.20
2022-09-13T19:54:56.296Z,16.50
2022-09-13T19:57:24.171Z,16.10
2022-09-13T19:59:53.416Z,16.70
2022-09-13T20:02:21.284Z,16.20
2022-09-13T20:04:49.637Z,16.00
2022-09-13T20:07:17.707Z,17.00
2022-09-13T20:09:46.985Z,15.90
2022-09-13T20:12:15.463Z,16.20
2022-09-13T20:14:43.324Z,15.70
2022-09-13T20:17:12.640Z,17.00
2022-09-13T20:19:44.744Z,15.70
2022-09-13T20:22:15.739Z,16.00
2022-09-13T20:24:43.705Z,16.60
2022-09-13T20:27:11.613Z,16.10
2022-09-13T20:29:40.309Z,15.60
2022-09-13T20:32:09.395Z,16.20
2022-09-13T20:34:39.189Z,15.50
2022-09-13T20:37:07.112Z,15.30
2022-09-13T20:39:35.115Z,16.20
2022-09-13T20:42:03.099Z,15.60
2022-09-13T20:44:31.081Z,15.00
2022-09-13T20:46:59.075Z,15.40
2022-09-13T20:49:28.281Z,16.20
2022-09-13T20:51:57.573Z,16.30
2022-09-13T20:54:25.524Z,14.80
2022-09-13T20:56:53.447Z,16.40
2022-09-13T20:59:22.415Z,15.40
2022-09-13T21:01:50.822Z,15.80
2022-09-13T21:04:18.782Z,14.90
2022-09-13T21:07:00.698Z,16.00
2022-09-13T21:09:31.698Z,15.40
2022-09-13T21:12:01.283Z,14.80
2022-09-13T21:14:32.224Z,15.50
2022-09-13T21:17:00.391Z,16.10
2022-09-13T21:19:29.616Z,16.00
2022-09-13T21:21:57.504Z,15.70
2022-09-13T21:24:25.463Z,15.60
2022-09-13T21:26:54.717Z,15.00
2022-09-13T21:29:22.633Z,15.20
2022-09-13T21:31:50.566Z,15.20
2022-09-13T21:34:19.777Z,15.70
2022-09-13T21:36:48.122Z,14.50
2022-09-13T21:39:16.832Z,14.60
2022-09-13T21:41:44.787Z,14.30
2022-09-13T21:44:13.996Z,14.60
2022-09-13T21:46:42.223Z,14.90
2022-09-13T21:49:12.155Z,14.70
2022-09-13T21:51:42.112Z,14.30
2022-09-13T21:54:11.496Z,14.30
2022-09-13T21:56:41.113Z,14.90
2022-09-13T21:59:12.435Z,15.00
2022-09-13T22:01:43.369Z,13.90
2022-09-13T22:04:15.166Z,15.40
2022-09-13T22:06:43.018Z,14.80
2022-09-13T22:09:12.753Z,14.30
2022-09-13T22:11:43.546Z,14.80
2022-09-13T22:14:13.054Z,14.00
2022-09-13T22:16:43.820Z,14.70
2022-09-13T22:19:13.330Z,14.70
2022-09-13T22:21:42.955Z,13.90
2022-09-13T22:24:14.162Z,14.10
2022-09-13T22:26:42.359Z,13.90
2022-09-13T22:29:10.754Z,13.60
2022-09-13T22:31:40.459Z,14.10
2022-09-13T22:34:13.871Z,13.60
2022-09-13T22:36:41.883Z,13.40
2022-09-13T22:39:12.375Z,13.70
2022-09-13T22:41:40.305Z,13.60
2022-09-13T22:44:08.739Z,15.00
2022-09-13T22:46:37.883Z,13.40
2022-09-13T22:49:06.772Z,14.00
2022-09-13T22:51:36.115Z,13.30
2022-09-13T22:54:07.136Z,13.40
2022-09-13T22:56:36.527Z,14.00
2022-09-13T22:59:06.723Z,13.80
2022-09-13T23:01:34.963Z,13.80
2022-09-13T23:04:03.660Z,13.70
2022-09-13T23:06:32.196Z,13.10
2022-09-13T23:09:03.636Z,13.90
2022-09-13T23:11:33.570Z,13.20
2022-09-13T23:14:03.324Z,13.10
2022-09-13T23:16:33.613Z,13.20
2022-09-13T23:19:01.983Z,13.10
2022-09-13T23:21:32.267Z,13.30
2022-09-13T23:24:02.571Z,13.00
2022-09-13T23:26:31.184Z,13.10
2022-09-13T23:29:00.751Z,14.70
2022-09-13T23:31:31.548Z,13.50
2022-09-13T23:34:01.844Z,12.80
2022-09-13T23:36:31.919Z,12.80
2022-09-13T23:39:03.013Z,13.70
2022-09-13T23:41:31.804Z,13.20
2022-09-13T23:43:59.728Z,12.60
2022-09-13T23:46:27.827Z,12.50
2022-09-13T23:48:55.788Z,12.50
2022-09-13T23:51:25.750Z,12.50
2022-09-13T23:53:56.998Z,12.70
2022-09-13T23:56:27.423Z,12.90
2022-09-13T23:58:57.297Z,12.80
